sensor_id;sensor_type;location;lat;lon;timestamp;temperature;humidity
6421;DHT22;3243;50.958;7.012;2023-09-07T00:01:37;17.00;1.00
6421;DHT22;3243;50.958;7.012;2023-09-07T00:04:04;17.10;1.00
6421;DHT22;3243;50.958;7.012;2023-09-07T00:09:02;17.10;99.90
6421;DHT22;3243;50.958;7.012;2023-09-07T00:16:27;17.10;99.90
6421;DHT22;3243;50.958;7.012;2023-09-07T00:21:21;17.00;99.90
6421;DHT22;3243;50.958;7.012;2023-09-07T00:23:48;17.00;99.90
6421;DHT22;3243;50.958;7.012;2023-09-07T00:28:42;17.00;99.90
6421;DHT22;3243;50.958;7.012;2023-09-07T00:33:36;16.90;99.90
6421;DHT22;3243;50.958;7.012;2023-09-07T00:36:03;16.80;99.90
6421;DHT22;3243;50.958;7.012;2023-09-07T00:43:24;16.80;99.90
6421;DHT22;3243;50.958;7.012;2023-09-07T00:48:19;16.80;99.90
6421;DHT22;3243;50.958;7.012;2023-09-07T00:50:46;16.80;99.90
6421;DHT22;3243;50.958;7.012;2023-09-07T00:55:41;16.70;99.90
6421;DHT22;3243;50.958;7.012;2023-09-07T01:00:39;16.70;99.90
6421;DHT22;3243;50.958;7.012;2023-09-07T01:03:06;16.70;99.90
6421;DHT22;3243;50.958;7.012;2023-09-07T01:13:11;16.60;99.90
6421;DHT22;3243;50.958;7.012;2023-09-07T01:15:38;16.50;99.90
6421;DHT22;3243;50.958;7.012;2023-09-07T01:18:06;16.50;99.90
6421;DHT22;3243;50.958;7.012;2023-09-07T01:23:17;16.50;99.90
6421;DHT22;3243;50.958;7.012;2023-09-07T01:25:45;16.50;99.90
6421;DHT22;3243;50.958;7.012;2023-09-07T01:30:41;16.40;99.90
6421;DHT22;3243;50.958;7.012;2023-09-07T01:35:36;16.40;99.90
6421;DHT22;3243;50.958;7.012;2023-09-07T01:38:04;16.40;99.90
6421;DHT22;3243;50.958;7.012;2023-09-07T01:42:58;16.40;99.90
6421;DHT22;3243;50.958;7.012;2023-09-07T01:47:52;16.40;99.90
6421;DHT22;3243;50.958;7.012;2023-09-07T01:52:47;16.40;99.90
6421;DHT22;3243;50.958;7.012;2023-09-07T01:57:44;16.30;99.90
6421;DHT22;3243;50.958;7.012;2023-09-07T02:00:12;16.30;99.90
6421;DHT22;3243;50.958;7.012;2023-09-07T02:05:06;16.20;99.90
6421;DHT22;3243;50.958;7.012;2023-09-07T02:10:01;16.20;99.90
6421;DHT22;3243;50.958;7.012;2023-09-07T02:12:30;16.10;99.90
6421;DHT22;3243;50.958;7.012;2023-09-07T02:14:58;16.10;99.90
6421;DHT22;3243;50.958;7.012;2023-09-07T02:17:25;16.10;99.90
6421;DHT22;3243;50.958;7.012;2023-09-07T02:19:52;16.00;99.90
6421;DHT22;3243;50.958;7.012;2023-09-07T02:24:46;16.10;99.90
6421;DHT22;3243;50.958;7.012;2023-09-07T02:29:40;16.00;99.90
6421;DHT22;3243;50.958;7.012;2023-09-07T02:32:08;16.00;99.90
6421;DHT22;3243;50.958;7.012;2023-09-07T02:37:03;16.00;99.90
6421;DHT22;3243;50.958;7.012;2023-09-07T02:44:24;15.90;99.90
6421;DHT22;3243;50.958;7.012;2023-09-07T02:49:18;15.80;99.90
6421;DHT22;3243;50.958;7.012;2023-09-07T02:51:45;15.70;99.90
6421;DHT22;3243;50.958;7.012;2023-09-07T02:54:12;15.70;99.90
6421;DHT22;3243;50.958;7.012;2023-09-07T02:59:05;15.60;99.90
6421;DHT22;3243;50.958;7.012;2023-09-07T03:04:00;15.60;99.90
6421;DHT22;3243;50.958;7.012;2023-09-07T03:08:53;15.50;99.90
6421;DHT22;3243;50.958;7.012;2023-09-07T03:13:47;15.50;99.90
6421;DHT22;3243;50.958;7.012;2023-09-07T03:16:14;15.50;99.90
6421;DHT22;3243;50.958;7.012;2023-09-07T03:18:41;15.40;99.90
6421;DHT22;3243;50.958;7.012;2023-09-07T03:21:08;15.40;99.90
6421;DHT22;3243;50.958;7.012;2023-09-07T03:23:35;15.30;99.90
6421;DHT22;3243;50.958;7.012;2023-09-07T03:26:02;15.30;99.90
6421;DHT22;3243;50.958;7.012;2023-09-07T03:30:56;15.30;99.90
6421;DHT22;3243;50.958;7.012;2023-09-07T03:33:23;15.30;99.90
6421;DHT22;3243;50.958;7.012;2023-09-07T03:35:50;15.30;99.90
6421;DHT22;3243;50.958;7.012;2023-09-07T03:38:18;15.30;99.90
6421;DHT22;3243;50.958;7.012;2023-09-07T03:43:12;15.30;99.90
6421;DHT22;3243;50.958;7.012;2023-09-07T03:48:06;15.20;99.90
6421;DHT22;3243;50.958;7.012;2023-09-07T03:53:00;15.10;99.90
6421;DHT22;3243;50.958;7.012;2023-09-07T03:55:27;15.10;99.90
6421;DHT22;3243;50.958;7.012;2023-09-07T04:00:21;15.10;99.90
6421;DHT22;3243;50.958;7.012;2023-09-07T04:07:42;15.00;99.90
6421;DHT22;3243;50.958;7.012;2023-09-07T04:10:09;15.00;99.90
6421;DHT22;3243;50.958;7.012;2023-09-07T04:15:03;15.00;99.90
6421;DHT22;3243;50.958;7.012;2023-09-07T04:20:07;15.00;99.90
6421;DHT22;3243;50.958;7.012;2023-09-07T04:25:02;14.90;99.90
6421;DHT22;3243;50.958;7.012;2023-09-07T04:27:30;15.10;99.90
6421;DHT22;3243;50.958;7.012;2023-09-07T04:29:57;15.10;99.90
6421;DHT22;3243;50.958;7.012;2023-09-07T04:34:57;15.00;99.90
6421;DHT22;3243;50.958;7.012;2023-09-07T04:37:26;15.00;99.90
6421;DHT22;3243;50.958;7.012;2023-09-07T04:39:53;15.00;99.90
6421;DHT22;3243;50.958;7.012;2023-09-07T04:42:20;15.00;99.90
6421;DHT22;3243;50.958;7.012;2023-09-07T04:44:47;14.90;99.90
6421;DHT22;3243;50.958;7.012;2023-09-07T04:47:14;14.90;99.90
6421;DHT22;3243;50.958;7.012;2023-09-07T04:52:09;14.80;99.90
6421;DHT22;3243;50.958;7.012;2023-09-07T04:54:36;14.80;99.90
6421;DHT22;3243;50.958;7.012;2023-09-07T04:59:30;14.80;99.90
6421;DHT22;3243;50.958;7.012;2023-09-07T05:01:59;14.80;99.90
6421;DHT22;3243;50.958;7.012;2023-09-07T05:04:28;14.80;99.90
6421;DHT22;3243;50.958;7.012;2023-09-07T05:06:56;14.70;99.90
6421;DHT22;3243;50.958;7.012;2023-09-07T05:11:51;14.80;99.90
6421;DHT22;3243;50.958;7.012;2023-09-07T05:16:46;14.90;99.90
6421;DHT22;3243;50.958;7.012;2023-09-07T05:21:40;14.90;99.90
6421;DHT22;3243;50.958;7.012;2023-09-07T05:26:34;15.00;99.90
6421;DHT22;3243;50.958;7.012;2023-09-07T05:31:28;15.10;99.90
6421;DHT22;3243;50.958;7.012;2023-09-07T05:36:22;15.10;99.90
6421;DHT22;3243;50.958;7.012;2023-09-07T05:38:49;15.20;99.90
6421;DHT22;3243;50.958;7.012;2023-09-07T05:41:16;15.20;99.90
6421;DHT22;3243;50.958;7.012;2023-09-07T05:51:04;15.40;99.90
6421;DHT22;3243;50.958;7.012;2023-09-07T05:53:31;15.40;99.90
6421;DHT22;3243;50.958;7.012;2023-09-07T06:03:19;15.70;99.90
6421;DHT22;3243;50.958;7.012;2023-09-07T06:05:46;15.80;99.90
6421;DHT22;3243;50.958;7.012;2023-09-07T06:08:13;15.80;99.90
6421;DHT22;3243;50.958;7.012;2023-09-07T06:10:40;15.90;99.90
6421;DHT22;3243;50.958;7.012;2023-09-07T06:15:34;16.00;99.90
6421;DHT22;3243;50.958;7.012;2023-09-07T06:18:01;16.10;99.90
6421;DHT22;3243;50.958;7.012;2023-09-07T06:20:28;16.20;99.90
6421;DHT22;3243;50.958;7.012;2023-09-07T06:25:22;16.40;99.90
6421;DHT22;3243;50.958;7.012;2023-09-07T06:27:49;16.40;99.90
6421;DHT22;3243;50.958;7.012;2023-09-07T06:30:16;16.50;99.90
6421;DHT22;3243;50.958;7.012;2023-09-07T06:40:08;16.90;99.90
6421;DHT22;3243;50.958;7.012;2023-09-07T06:42:36;16.90;99.90
6421;DHT22;3243;50.958;7.012;2023-09-07T06:45:03;17.00;99.90
6421;DHT22;3243;50.958;7.012;2023-09-07T06:47:30;17.10;99.90
6421;DHT22;3243;50.958;7.012;2023-09-07T06:49:57;17.20;99.90
6421;DHT22;3243;50.958;7.012;2023-09-07T06:54:53;17.40;99.90
6421;DHT22;3243;50.958;7.012;2023-09-07T06:57:20;17.50;99.90
6421;DHT22;3243;50.958;7.012;2023-09-07T07:02:15;17.80;99.90
6421;DHT22;3243;50.958;7.012;2023-09-07T07:07:10;18.00;99.90
6421;DHT22;3243;50.958;7.012;2023-09-07T07:12:05;18.30;99.90
6421;DHT22;3243;50.958;7.012;2023-09-07T07:14:32;18.40;99.90
6421;DHT22;3243;50.958;7.012;2023-09-07T07:16:59;18.60;99.90
6421;DHT22;3243;50.958;7.012;2023-09-07T07:21:53;18.80;99.90
6421;DHT22;3243;50.958;7.012;2023-09-07T07:29:14;19.30;99.90
6421;DHT22;3243;50.958;7.012;2023-09-07T07:34:08;19.60;99.90
6421;DHT22;3243;50.958;7.012;2023-09-07T07:39:04;19.90;99.90
6421;DHT22;3243;50.958;7.012;2023-09-07T07:41:33;20.00;99.90
6421;DHT22;3243;50.958;7.012;2023-09-07T07:46:27;20.20;99.90
6421;DHT22;3243;50.958;7.012;2023-09-07T07:48:54;20.30;99.90
6421;DHT22;3243;50.958;7.012;2023-09-07T07:51:21;20.40;99.90
6421;DHT22;3243;50.958;7.012;2023-09-07T07:56:19;20.60;99.90
6421;DHT22;3243;50.958;7.012;2023-09-07T07:58:46;20.70;99.90
6421;DHT22;3243;50.958;7.012;2023-09-07T08:01:15;20.80;99.90
6421;DHT22;3243;50.958;7.012;2023-09-07T08:03:42;20.90;99.90
6421;DHT22;3243;50.958;7.012;2023-09-07T08:06:10;21.00;99.90
6421;DHT22;3243;50.958;7.012;2023-09-07T08:08:38;21.10;99.90
6421;DHT22;3243;50.958;7.012;2023-09-07T08:11:05;21.20;99.90
6421;DHT22;3243;50.958;7.012;2023-09-07T08:13:33;21.40;99.90
6421;DHT22;3243;50.958;7.012;2023-09-07T08:16:04;21.50;99.90
6421;DHT22;3243;50.958;7.012;2023-09-07T08:18:33;21.70;99.90
6421;DHT22;3243;50.958;7.012;2023-09-07T08:21:01;21.80;99.90
6421;DHT22;3243;50.958;7.012;2023-09-07T08:25:56;22.10;99.90
6421;DHT22;3243;50.958;7.012;2023-09-07T08:33:24;22.30;99.90
6421;DHT22;3243;50.958;7.012;2023-09-07T08:35:57;22.40;99.90
6421;DHT22;3243;50.958;7.012;2023-09-07T08:38:23;22.50;99.90
6421;DHT22;3243;50.958;7.012;2023-09-07T08:43:23;22.70;99.90
6421;DHT22;3243;50.958;7.012;2023-09-07T08:46:08;22.70;99.90
6421;DHT22;3243;50.958;7.012;2023-09-07T08:48:39;22.80;99.90
6421;DHT22;3243;50.958;7.012;2023-09-07T08:51:06;22.90;99.90
6421;DHT22;3243;50.958;7.012;2023-09-07T08:53:34;23.00;99.90
6421;DHT22;3243;50.958;7.012;2023-09-07T08:56:01;23.10;99.90
6421;DHT22;3243;50.958;7.012;2023-09-07T08:58:29;23.20;99.90
6421;DHT22;3243;50.958;7.012;2023-09-07T09:00:56;23.20;99.90
6421;DHT22;3243;50.958;7.012;2023-09-07T09:03:33;23.30;99.90
6421;DHT22;3243;50.958;7.012;2023-09-07T09:06:01;23.40;99.90
6421;DHT22;3243;50.958;7.012;2023-09-07T09:08:29;23.50;99.90
6421;DHT22;3243;50.958;7.012;2023-09-07T09:11:03;23.70;99.90
6421;DHT22;3243;50.958;7.012;2023-09-07T09:13:31;23.70;99.90
6421;DHT22;3243;50.958;7.012;2023-09-07T09:16:00;23.80;99.90
6421;DHT22;3243;50.958;7.012;2023-09-07T09:23:36;24.10;99.90
6421;DHT22;3243;50.958;7.012;2023-09-07T09:26:04;24.20;99.90
6421;DHT22;3243;50.958;7.012;2023-09-07T09:28:32;24.30;99.90
6421;DHT22;3243;50.958;7.012;2023-09-07T09:31:02;24.50;99.90
6421;DHT22;3243;50.958;7.012;2023-09-07T09:33:32;24.50;99.90
6421;DHT22;3243;50.958;7.012;2023-09-07T09:36:02;24.50;99.90
6421;DHT22;3243;50.958;7.012;2023-09-07T09:40:59;24.60;99.90
6421;DHT22;3243;50.958;7.012;2023-09-07T09:43:26;24.60;99.90
6421;DHT22;3243;50.958;7.012;2023-09-07T09:45:53;24.70;99.90
6421;DHT22;3243;50.958;7.012;2023-09-07T09:48:20;24.80;99.90
6421;DHT22;3243;50.958;7.012;2023-09-07T09:50:48;24.80;99.90
6421;DHT22;3243;50.958;7.012;2023-09-07T09:53:16;24.90;99.90
6421;DHT22;3243;50.958;7.012;2023-09-07T09:55:47;24.90;99.90
6421;DHT22;3243;50.958;7.012;2023-09-07T09:58:15;24.90;99.90
6421;DHT22;3243;50.958;7.012;2023-09-07T10:00:48;25.00;99.90
6421;DHT22;3243;50.958;7.012;2023-09-07T10:03:31;25.10;99.90
6421;DHT22;3243;50.958;7.012;2023-09-07T10:06:17;25.20;99.90
6421;DHT22;3243;50.958;7.012;2023-09-07T10:09:02;25.30;99.90
6421;DHT22;3243;50.958;7.012;2023-09-07T10:11:31;25.30;99.90
6421;DHT22;3243;50.958;7.012;2023-09-07T10:14:02;25.30;99.90
6421;DHT22;3243;50.958;7.012;2023-09-07T10:16:43;25.40;99.90
6421;DHT22;3243;50.958;7.012;2023-09-07T10:19:29;25.50;99.90
6421;DHT22;3243;50.958;7.012;2023-09-07T10:21:56;25.60;99.90
6421;DHT22;3243;50.958;7.012;2023-09-07T10:24:27;25.70;99.90
6421;DHT22;3243;50.958;7.012;2023-09-07T10:27:02;25.70;99.90
6421;DHT22;3243;50.958;7.012;2023-09-07T10:29:39;25.90;99.90
6421;DHT22;3243;50.958;7.012;2023-09-07T10:32:07;26.00;99.90
6421;DHT22;3243;50.958;7.012;2023-09-07T10:34:35;26.00;99.90
6421;DHT22;3243;50.958;7.012;2023-09-07T10:39:37;26.00;99.90
6421;DHT22;3243;50.958;7.012;2023-09-07T10:42:05;26.10;99.90
6421;DHT22;3243;50.958;7.012;2023-09-07T10:47:00;26.30;99.90
6421;DHT22;3243;50.958;7.012;2023-09-07T10:49:26;26.40;99.90
6421;DHT22;3243;50.958;7.012;2023-09-07T10:51:53;26.40;99.90
6421;DHT22;3243;50.958;7.012;2023-09-07T10:54:24;26.50;99.90
6421;DHT22;3243;50.958;7.012;2023-09-07T10:56:51;26.60;99.90
6421;DHT22;3243;50.958;7.012;2023-09-07T11:01:45;26.70;99.90
6421;DHT22;3243;50.958;7.012;2023-09-07T11:04:13;26.80;99.90
6421;DHT22;3243;50.958;7.012;2023-09-07T11:06:40;26.80;99.90
6421;DHT22;3243;50.958;7.012;2023-09-07T11:09:09;26.80;99.90
6421;DHT22;3243;50.958;7.012;2023-09-07T11:11:38;26.90;99.90
6421;DHT22;3243;50.958;7.012;2023-09-07T11:14:05;26.90;99.90
6421;DHT22;3243;50.958;7.012;2023-09-07T11:16:35;27.10;99.90
6421;DHT22;3243;50.958;7.012;2023-09-07T11:19:06;27.10;99.90
6421;DHT22;3243;50.958;7.012;2023-09-07T11:21:36;27.10;99.90
6421;DHT22;3243;50.958;7.012;2023-09-07T11:24:03;27.20;99.90
6421;DHT22;3243;50.958;7.012;2023-09-07T11:26:46;27.20;99.90
6421;DHT22;3243;50.958;7.012;2023-09-07T11:29:14;27.30;99.90
6421;DHT22;3243;50.958;7.012;2023-09-07T11:31:42;27.30;99.90
6421;DHT22;3243;50.958;7.012;2023-09-07T11:34:13;27.40;99.90
6421;DHT22;3243;50.958;7.012;2023-09-07T11:36:41;27.40;99.90
6421;DHT22;3243;50.958;7.012;2023-09-07T11:39:08;27.50;99.90
6421;DHT22;3243;50.958;7.012;2023-09-07T11:41:44;27.50;99.90
6421;DHT22;3243;50.958;7.012;2023-09-07T11:44:11;27.60;99.90
6421;DHT22;3243;50.958;7.012;2023-09-07T11:46:39;27.50;99.90
6421;DHT22;3243;50.958;7.012;2023-09-07T11:54:03;27.60;99.90
6421;DHT22;3243;50.958;7.012;2023-09-07T11:58:58;27.70;99.90
6421;DHT22;3243;50.958;7.012;2023-09-07T12:03:54;27.70;99.90
6421;DHT22;3243;50.958;7.012;2023-09-07T12:09:00;27.80;99.90
6421;DHT22;3243;50.958;7.012;2023-09-07T12:11:27;27.90;99.90
6421;DHT22;3243;50.958;7.012;2023-09-07T12:18:49;28.00;99.90
6421;DHT22;3243;50.958;7.012;2023-09-07T12:23:43;28.00;99.90
6421;DHT22;3243;50.958;7.012;2023-09-07T12:28:37;28.10;99.90
6421;DHT22;3243;50.958;7.012;2023-09-07T12:31:03;28.20;99.90
6421;DHT22;3243;50.958;7.012;2023-09-07T12:33:31;28.20;93.80
6421;DHT22;3243;50.958;7.012;2023-09-07T12:38:27;28.30;79.80
6421;DHT22;3243;50.958;7.012;2023-09-07T12:43:23;28.30;93.70
6421;DHT22;3243;50.958;7.012;2023-09-07T12:48:20;28.40;70.20
6421;DHT22;3243;50.958;7.012;2023-09-07T12:50:47;28.50;46.70
6421;DHT22;3243;50.958;7.012;2023-09-07T12:53:14;28.50;41.90
6421;DHT22;3243;50.958;7.012;2023-09-07T12:55:41;28.40;25.10
6421;DHT22;3243;50.958;7.012;2023-09-07T12:58:07;28.40;16.20
6421;DHT22;3243;50.958;7.012;2023-09-07T13:00:34;28.40;12.90
6421;DHT22;3243;50.958;7.012;2023-09-07T13:10:25;28.50;13.40
6421;DHT22;3243;50.958;7.012;2023-09-07T13:15:19;28.40;13.50
6421;DHT22;3243;50.958;7.012;2023-09-07T13:17:46;28.50;11.50
6421;DHT22;3243;50.958;7.012;2023-09-07T13:20:13;28.50;9.70
6421;DHT22;3243;50.958;7.012;2023-09-07T13:27:36;28.70;1.00
6421;DHT22;3243;50.958;7.012;2023-09-07T13:30:04;28.60;13.00
6421;DHT22;3243;50.958;7.012;2023-09-07T13:32:32;28.70;3.20
6421;DHT22;3243;50.958;7.012;2023-09-07T13:34:59;28.70;10.70
6421;DHT22;3243;50.958;7.012;2023-09-07T13:37:26;28.70;1.00
6421;DHT22;3243;50.958;7.012;2023-09-07T13:39:53;28.70;1.00
6421;DHT22;3243;50.958;7.012;2023-09-07T13:42:20;28.70;1.00
6421;DHT22;3243;50.958;7.012;2023-09-07T13:44:47;28.80;1.00
6421;DHT22;3243;50.958;7.012;2023-09-07T13:49:41;28.80;1.00
6421;DHT22;3243;50.958;7.012;2023-09-07T13:52:08;28.80;1.00
6421;DHT22;3243;50.958;7.012;2023-09-07T13:54:35;28.80;1.00
6421;DHT22;3243;50.958;7.012;2023-09-07T13:59:29;28.80;1.00
6421;DHT22;3243;50.958;7.012;2023-09-07T14:01:59;28.90;1.00
6421;DHT22;3243;50.958;7.012;2023-09-07T14:04:26;28.90;1.00
6421;DHT22;3243;50.958;7.012;2023-09-07T14:06:53;28.90;1.00
6421;DHT22;3243;50.958;7.012;2023-09-07T14:09:20;28.90;1.00
6421;DHT22;3243;50.958;7.012;2023-09-07T14:14:18;28.90;1.00
6421;DHT22;3243;50.958;7.012;2023-09-07T14:16:44;28.90;1.00
6421;DHT22;3243;50.958;7.012;2023-09-07T14:19:11;28.90;1.00
6421;DHT22;3243;50.958;7.012;2023-09-07T14:21:38;28.90;1.00
6421;DHT22;3243;50.958;7.012;2023-09-07T14:24:05;28.90;1.00
6421;DHT22;3243;50.958;7.012;2023-09-07T14:26:32;28.90;1.00
6421;DHT22;3243;50.958;7.012;2023-09-07T14:31:26;28.90;1.00
6421;DHT22;3243;50.958;7.012;2023-09-07T14:33:52;28.80;1.00
6421;DHT22;3243;50.958;7.012;2023-09-07T14:38:46;28.80;1.00
6421;DHT22;3243;50.958;7.012;2023-09-07T14:41:13;28.70;1.00
6421;DHT22;3243;50.958;7.012;2023-09-07T14:43:47;28.70;1.00
6421;DHT22;3243;50.958;7.012;2023-09-07T14:46:15;28.70;1.00
6421;DHT22;3243;50.958;7.012;2023-09-07T14:53:36;28.70;1.00
6421;DHT22;3243;50.958;7.012;2023-09-07T14:58:31;28.80;1.00
6421;DHT22;3243;50.958;7.012;2023-09-07T15:00:58;28.80;1.00
6421;DHT22;3243;50.958;7.012;2023-09-07T15:05:52;28.90;1.00
6421;DHT22;3243;50.958;7.012;2023-09-07T15:10:49;28.90;1.00
6421;DHT22;3243;50.958;7.012;2023-09-07T15:13:16;28.90;1.00
6421;DHT22;3243;50.958;7.012;2023-09-07T15:15:43;28.80;1.00
6421;DHT22;3243;50.958;7.012;2023-09-07T15:18:10;28.90;1.00
6421;DHT22;3243;50.958;7.012;2023-09-07T15:20:37;28.80;1.00
6421;DHT22;3243;50.958;7.012;2023-09-07T15:23:04;28.80;1.00
6421;DHT22;3243;50.958;7.012;2023-09-07T15:25:31;28.80;1.00
6421;DHT22;3243;50.958;7.012;2023-09-07T15:27:58;28.70;1.00
6421;DHT22;3243;50.958;7.012;2023-09-07T15:30:24;28.50;1.00
6421;DHT22;3243;50.958;7.012;2023-09-07T15:32:52;28.40;1.00
6421;DHT22;3243;50.958;7.012;2023-09-07T15:35:19;28.50;1.00
6421;DHT22;3243;50.958;7.012;2023-09-07T15:37:46;28.40;1.00
6421;DHT22;3243;50.958;7.012;2023-09-07T15:40:13;28.50;1.00
6421;DHT22;3243;50.958;7.012;2023-09-07T15:42:41;29.50;1.00
6421;DHT22;3243;50.958;7.012;2023-09-07T15:45:08;28.40;1.00
6421;DHT22;3243;50.958;7.012;2023-09-07T15:47:36;28.50;1.00
6421;DHT22;3243;50.958;7.012;2023-09-07T15:50:03;28.50;1.00
6421;DHT22;3243;50.958;7.012;2023-09-07T15:52:30;28.40;1.00
6421;DHT22;3243;50.958;7.012;2023-09-07T15:54:57;28.40;1.00
6421;DHT22;3243;50.958;7.012;2023-09-07T15:57:25;28.20;1.00
6421;DHT22;3243;50.958;7.012;2023-09-07T15:59:52;28.20;1.00
6421;DHT22;3243;50.958;7.012;2023-09-07T16:02:19;28.10;1.00
6421;DHT22;3243;50.958;7.012;2023-09-07T16:04:46;28.20;1.00
6421;DHT22;3243;50.958;7.012;2023-09-07T16:07:13;28.20;1.00
6421;DHT22;3243;50.958;7.012;2023-09-07T16:09:39;28.20;1.00
6421;DHT22;3243;50.958;7.012;2023-09-07T16:12:06;28.00;1.00
6421;DHT22;3243;50.958;7.012;2023-09-07T16:14:33;27.90;1.00
6421;DHT22;3243;50.958;7.012;2023-09-07T16:17:00;27.90;1.00
6421;DHT22;3243;50.958;7.012;2023-09-07T16:19:27;27.90;1.00
6421;DHT22;3243;50.958;7.012;2023-09-07T16:21:54;27.90;1.00
6421;DHT22;3243;50.958;7.012;2023-09-07T16:24:21;27.90;1.00
6421;DHT22;3243;50.958;7.012;2023-09-07T16:26:47;27.80;1.00
6421;DHT22;3243;50.958;7.012;2023-09-07T16:29:14;27.80;1.00
6421;DHT22;3243;50.958;7.012;2023-09-07T16:31:41;27.80;1.00
6421;DHT22;3243;50.958;7.012;2023-09-07T16:34:08;27.70;1.00
6421;DHT22;3243;50.958;7.012;2023-09-07T16:36:35;27.60;1.00
6421;DHT22;3243;50.958;7.012;2023-09-07T16:39:02;27.50;1.00
6421;DHT22;3243;50.958;7.012;2023-09-07T16:41:29;27.40;1.00
6421;DHT22;3243;50.958;7.012;2023-09-07T16:43:56;27.30;1.00
6421;DHT22;3243;50.958;7.012;2023-09-07T16:46:23;27.20;1.00
6421;DHT22;3243;50.958;7.012;2023-09-07T16:48:49;27.10;1.00
6421;DHT22;3243;50.958;7.012;2023-09-07T16:51:16;26.80;1.00
6421;DHT22;3243;50.958;7.012;2023-09-07T16:53:43;26.80;1.00
6421;DHT22;3243;50.958;7.012;2023-09-07T16:56:11;26.70;1.00
6421;DHT22;3243;50.958;7.012;2023-09-07T16:58:41;26.60;1.00
6421;DHT22;3243;50.958;7.012;2023-09-07T17:01:29;26.50;1.00
6421;DHT22;3243;50.958;7.012;2023-09-07T17:03:56;26.40;1.00
6421;DHT22;3243;50.958;7.012;2023-09-07T17:06:23;26.40;1.00
6421;DHT22;3243;50.958;7.012;2023-09-07T17:08:49;26.30;1.00
6421;DHT22;3243;50.958;7.012;2023-09-07T17:11:17;26.10;1.00
6421;DHT22;3243;50.958;7.012;2023-09-07T17:13:44;26.00;1.00
6421;DHT22;3243;50.958;7.012;2023-09-07T17:16:27;26.00;1.00
6421;DHT22;3243;50.958;7.012;2023-09-07T17:18:54;25.80;1.00
6421;DHT22;3243;50.958;7.012;2023-09-07T17:21:21;25.70;1.00
6421;DHT22;3243;50.958;7.012;2023-09-07T17:23:47;25.70;1.00
6421;DHT22;3243;50.958;7.012;2023-09-07T17:26:16;25.60;24.10
6421;DHT22;3243;50.958;7.012;2023-09-07T17:28:43;25.50;99.90
6421;DHT22;3243;50.958;7.012;2023-09-07T17:31:13;25.30;99.90
6421;DHT22;3243;50.958;7.012;2023-09-07T17:33:41;25.30;99.90
6421;DHT22;3243;50.958;7.012;2023-09-07T17:36:16;25.20;99.90
6421;DHT22;3243;50.958;7.012;2023-09-07T17:38:43;25.10;99.90
6421;DHT22;3243;50.958;7.012;2023-09-07T17:41:11;24.80;99.90
6421;DHT22;3243;50.958;7.012;2023-09-07T17:43:38;24.80;99.90
6421;DHT22;3243;50.958;7.012;2023-09-07T17:46:06;24.70;99.90
6421;DHT22;3243;50.958;7.012;2023-09-07T17:48:34;25.50;99.90
6421;DHT22;3243;50.958;7.012;2023-09-07T17:51:02;24.30;99.90
6421;DHT22;3243;50.958;7.012;2023-09-07T17:53:29;24.30;99.90
6421;DHT22;3243;50.958;7.012;2023-09-07T17:55:56;24.20;99.90
6421;DHT22;3243;50.958;7.012;2023-09-07T17:58:23;24.10;99.90
6421;DHT22;3243;50.958;7.012;2023-09-07T18:00:50;23.90;99.90
6421;DHT22;3243;50.958;7.012;2023-09-07T18:03:16;23.90;99.90
6421;DHT22;3243;50.958;7.012;2023-09-07T18:05:43;23.80;99.90
6421;DHT22;3243;50.958;7.012;2023-09-07T18:08:11;23.70;99.90
6421;DHT22;3243;50.958;7.012;2023-09-07T18:10:38;23.70;99.90
6421;DHT22;3243;50.958;7.012;2023-09-07T18:13:05;23.60;99.90
6421;DHT22;3243;50.958;7.012;2023-09-07T18:15:32;23.50;99.90
6421;DHT22;3243;50.958;7.012;2023-09-07T18:17:59;23.40;99.90
6421;DHT22;3243;50.958;7.012;2023-09-07T18:20:26;23.40;99.90
6421;DHT22;3243;50.958;7.012;2023-09-07T18:22:53;23.30;99.90
6421;DHT22;3243;50.958;7.012;2023-09-07T18:25:20;23.20;99.90
6421;DHT22;3243;50.958;7.012;2023-09-07T18:27:48;23.10;99.90
6421;DHT22;3243;50.958;7.012;2023-09-07T18:30:15;23.00;99.90
6421;DHT22;3243;50.958;7.012;2023-09-07T18:32:42;23.00;99.90
6421;DHT22;3243;50.958;7.012;2023-09-07T18:35:09;22.90;99.90
6421;DHT22;3243;50.958;7.012;2023-09-07T18:37:36;22.80;99.90
6421;DHT22;3243;50.958;7.012;2023-09-07T18:40:05;22.70;99.90
6421;DHT22;3243;50.958;7.012;2023-09-07T18:42:35;22.70;99.90
6421;DHT22;3243;50.958;7.012;2023-09-07T18:45:02;22.60;99.90
6421;DHT22;3243;50.958;7.012;2023-09-07T18:47:31;22.50;99.90
6421;DHT22;3243;50.958;7.012;2023-09-07T18:49:58;22.50;99.90
6421;DHT22;3243;50.958;7.012;2023-09-07T18:52:25;22.40;99.90
6421;DHT22;3243;50.958;7.012;2023-09-07T18:54:54;22.40;99.90
6421;DHT22;3243;50.958;7.012;2023-09-07T18:57:21;22.30;99.90
6421;DHT22;3243;50.958;7.012;2023-09-07T18:59:48;22.30;99.90
6421;DHT22;3243;50.958;7.012;2023-09-07T19:02:16;22.30;99.90
6421;DHT22;3243;50.958;7.012;2023-09-07T19:04:43;22.20;99.90
6421;DHT22;3243;50.958;7.012;2023-09-07T19:07:10;22.20;99.90
6421;DHT22;3243;50.958;7.012;2023-09-07T19:09:41;22.00;99.90
6421;DHT22;3243;50.958;7.012;2023-09-07T19:12:08;22.00;99.90
6421;DHT22;3243;50.958;7.012;2023-09-07T19:14:35;22.00;99.90
6421;DHT22;3243;50.958;7.012;2023-09-07T19:17:02;22.00;99.90
6421;DHT22;3243;50.958;7.012;2023-09-07T19:19:29;21.90;99.90
6421;DHT22;3243;50.958;7.012;2023-09-07T19:21:56;21.90;99.90
6421;DHT22;3243;50.958;7.012;2023-09-07T19:24:22;21.90;99.90
6421;DHT22;3243;50.958;7.012;2023-09-07T19:26:49;21.80;99.90
6421;DHT22;3243;50.958;7.012;2023-09-07T19:29:17;21.80;99.90
6421;DHT22;3243;50.958;7.012;2023-09-07T19:31:44;21.70;99.90
6421;DHT22;3243;50.958;7.012;2023-09-07T19:34:12;21.70;99.90
6421;DHT22;3243;50.958;7.012;2023-09-07T19:36:39;21.60;99.90
6421;DHT22;3243;50.958;7.012;2023-09-07T19:39:06;21.50;99.90
6421;DHT22;3243;50.958;7.012;2023-09-07T19:41:33;21.50;99.90
6421;DHT22;3243;50.958;7.012;2023-09-07T19:46:30;21.20;99.90
6421;DHT22;3243;50.958;7.012;2023-09-07T19:56:20;20.90;99.90
6421;DHT22;3243;50.958;7.012;2023-09-07T20:01:16;20.90;99.90
6421;DHT22;3243;50.958;7.012;2023-09-07T20:03:49;20.90;99.90
6421;DHT22;3243;50.958;7.012;2023-09-07T20:06:18;20.80;99.90
6421;DHT22;3243;50.958;7.012;2023-09-07T20:08:46;20.80;99.90
6421;DHT22;3243;50.958;7.012;2023-09-07T20:11:16;20.80;99.90
6421;DHT22;3243;50.958;7.012;2023-09-07T20:18:39;20.70;99.90
6421;DHT22;3243;50.958;7.012;2023-09-07T20:28:30;20.50;99.90
6421;DHT22;3243;50.958;7.012;2023-09-07T20:31:00;20.50;99.90
6421;DHT22;3243;50.958;7.012;2023-09-07T20:33:28;20.40;99.90
6421;DHT22;3243;50.958;7.012;2023-09-07T20:38:22;20.30;99.90
6421;DHT22;3243;50.958;7.012;2023-09-07T20:43:16;20.20;99.90
6421;DHT22;3243;50.958;7.012;2023-09-07T20:45:50;20.20;99.90
6421;DHT22;3243;50.958;7.012;2023-09-07T20:48:19;20.10;99.90
6421;DHT22;3243;50.958;7.012;2023-09-07T20:50:46;20.10;99.90
6421;DHT22;3243;50.958;7.012;2023-09-07T20:53:13;20.00;99.90
6421;DHT22;3243;50.958;7.012;2023-09-07T20:58:08;19.90;99.90
6421;DHT22;3243;50.958;7.012;2023-09-07T21:03:02;19.80;99.90
6421;DHT22;3243;50.958;7.012;2023-09-07T21:05:29;19.70;99.90
6421;DHT22;3243;50.958;7.012;2023-09-07T21:07:56;19.70;99.90
6421;DHT22;3243;50.958;7.012;2023-09-07T21:15:18;19.70;99.90
6421;DHT22;3243;50.958;7.012;2023-09-07T21:20:12;19.60;99.90
6421;DHT22;3243;50.958;7.012;2023-09-07T21:25:07;19.50;99.90
6421;DHT22;3243;50.958;7.012;2023-09-07T21:27:34;19.50;99.90
6421;DHT22;3243;50.958;7.012;2023-09-07T21:30:05;19.40;99.90